createdAt,value
2022-09-24T00:01:40.820Z,10.10
2022-09-24T00:04:12.084Z,9.00
2022-09-24T00:06:48.584Z,7.70
2022-09-24T00:09:19.469Z,7.57
2022-09-24T00:11:46.330Z,9.70
2022-09-24T00:14:13.584Z,9.80
2022-09-24T00:16:41.499Z,10.40
2022-09-24T00:19:10.220Z,9.03
2022-09-24T00:21:39.566Z,10.13
2022-09-24T00:24:33.435Z,9.70
2022-09-24T00:27:00.956Z,10.43
2022-09-24T00:29:27.839Z,9.60
2022-09-24T00:31:54.830Z,9.93
2022-09-24T00:34:22.081Z,9.80
2022-09-24T00:36:48.866Z,10.27
2022-09-24T00:39:16.601Z,10.00
2022-09-24T00:41:47.821Z,8.47
2022-09-24T00:44:45.342Z,8.00
2022-09-24T00:47:32.743Z,7.90
2022-09-24T00:50:37.687Z,6.93
2022-09-24T00:53:12.198Z,8.70
2022-09-24T00:55:43.089Z,8.20
2022-09-24T00:58:11.099Z,8.10
2022-09-24T01:00:40.977Z,9.00
2022-09-24T01:03:13.245Z,8.83
2022-09-24T01:05:40.018Z,9.00
2022-09-24T01:08:11.623Z,9.53
2022-09-24T01:10:54.774Z,9.93
2022-09-24T01:14:13.692Z,7.90
2022-09-24T01:17:04.312Z,8.23
2022-09-24T01:20:26.933Z,9.33
2022-09-24T01:23:47.775Z,8.40
2022-09-24T01:26:55.584Z,8.77
2022-09-24T01:30:06.314Z,9.03
2022-09-24T01:32:49.554Z,7.70
2022-09-24T01:35:22.824Z,7.30
2022-09-24T01:38:06.668Z,7.57
2022-09-24T01:40:34.212Z,6.97
2022-09-24T01:43:04.429Z,8.30
2022-09-24T01:45:33.347Z,8.07
2022-09-24T01:48:01.298Z,9.23
2022-09-24T01:50:34.431Z,8.63
2022-09-24T01:53:30.955Z,8.07
2022-09-24T01:56:15.944Z,7.73
2022-09-24T01:59:04.778Z,8.60
2022-09-24T02:01:44.149Z,8.90
2022-09-24T02:04:17.177Z,9.33
2022-09-24T02:06:56.756Z,8.93
2022-09-24T02:09:42.455Z,9.43
2022-09-24T02:12:33.451Z,10.80
2022-09-24T02:15:17.366Z,8.90
2022-09-24T02:17:48.581Z,8.87
2022-09-24T02:20:21.279Z,9.63
2022-09-24T02:22:51.540Z,9.77
2022-09-24T02:25:25.758Z,10.03
2022-09-24T02:27:52.528Z,9.80
2022-09-24T02:30:19.365Z,9.43
2022-09-24T02:32:47.123Z,9.87
2022-09-24T02:35:13.918Z,9.37
2022-09-24T02:37:43.466Z,9.30
2022-09-24T02:40:13.546Z,9.57
2022-09-24T02:42:42.275Z,8.40
2022-09-24T02:45:10.554Z,9.43
2022-09-24T02:47:37.628Z,10.77
2022-09-24T02:50:05.152Z,10.60
2022-09-24T02:52:31.922Z,9.60
2022-09-24T02:54:58.712Z,9.20
2022-09-24T02:57:25.541Z,8.87
2022-09-24T02:59:52.307Z,10.70
2022-09-24T03:02:19.089Z,11.33
2022-09-24T03:04:47.152Z,10.67
2022-09-24T03:07:14.684Z,10.03
2022-09-24T03:09:41.466Z,8.93
2022-09-24T03:12:08.295Z,9.47
2022-09-24T03:14:35.102Z,11.27
2022-09-24T03:17:01.891Z,9.70
2022-09-24T03:19:29.284Z,9.80
2022-09-24T03:21:56.072Z,9.97
2022-09-24T03:24:22.842Z,9.50
2022-09-24T03:26:49.603Z,10.40
2022-09-24T03:29:16.345Z,9.83
2022-09-24T03:31:43.115Z,10.27
2022-09-24T03:34:10.093Z,7.77
2022-09-24T03:36:36.875Z,6.67
2022-09-24T03:39:03.814Z,6.97
2022-09-24T03:41:30.643Z,7.67
2022-09-24T03:43:57.438Z,7.43
2022-09-24T03:46:30.193Z,7.47
2022-09-24T03:48:59.176Z,7.80
2022-09-24T03:51:25.990Z,7.43
2022-09-24T03:53:52.771Z,6.50
2022-09-24T03:56:19.557Z,8.87
2022-09-24T03:58:48.002Z,8.47
2022-09-24T04:01:20.432Z,7.30
2022-09-24T04:03:48.873Z,8.47
2022-09-24T04:06:16.054Z,8.93
2022-09-24T04:08:42.845Z,8.40
2022-09-24T04:11:09.690Z,6.70
2022-09-24T04:13:36.446Z,6.37
2022-09-24T04:16:04.356Z,8.27
2022-09-24T04:18:34.634Z,6.17
2022-09-24T04:21:03.882Z,6.07
2022-09-24T04:23:31.328Z,7.00
2022-09-24T04:26:02.130Z,6.50
2022-09-24T04:28:30.283Z,7.50
2022-09-24T04:30:57.688Z,8.83
2022-09-24T04:33:24.714Z,8.23
2022-09-24T04:35:51.464Z,9.47
2022-09-24T04:38:19.555Z,8.40
2022-09-24T04:40:46.771Z,8.90
2022-09-24T04:43:13.692Z,6.90
2022-09-24T04:45:44.948Z,8.80
2022-09-24T04:48:12.526Z,8.43
2022-09-24T04:50:43.423Z,11.67
2022-09-24T04:53:12.742Z,8.67
2022-09-24T04:55:39.633Z,9.00
2022-09-24T04:58:06.515Z,9.13
2022-09-24T05:00:33.635Z,9.53
2022-09-24T05:03:04.964Z,10.20
2022-09-24T05:05:33.563Z,7.37
2022-09-24T05:08:01.409Z,7.30
2022-09-24T05:10:31.449Z,7.53
2022-09-24T05:12:58.386Z,9.00
2022-09-24T05:15:25.177Z,7.60
2022-09-24T05:17:51.908Z,6.57
2022-09-24T05:20:18.677Z,6.90
2022-09-24T05:22:49.195Z,7.67
2022-09-24T05:25:19.260Z,8.20
2022-09-24T05:27:49.343Z,9.50
2022-09-24T05:30:17.385Z,8.57
2022-09-24T05:32:44.212Z,8.20
2022-09-24T05:35:11.228Z,9.00
2022-09-24T05:37:38.289Z,10.77
2022-09-24T05:40:25.688Z,11.17
2022-09-24T05:42:59.713Z,10.37
2022-09-24T05:45:26.487Z,12.10
2022-09-24T05:47:53.310Z,12.10
2022-09-24T05:50:20.046Z,15.37
2022-09-24T05:52:46.841Z,13.13
2022-09-24T05:55:13.661Z,12.77
2022-09-24T05:57:40.471Z,10.40
2022-09-24T06:00:07.792Z,10.97
2022-09-24T06:02:34.630Z,11.47
2022-09-24T06:05:01.485Z,9.70
2022-09-24T06:07:28.237Z,9.53
2022-09-24T06:09:55.328Z,10.57
2022-09-24T06:12:23.498Z,8.70
2022-09-24T06:14:50.367Z,9.97
2022-09-24T06:17:17.125Z,9.63
2022-09-24T06:19:43.911Z,11.80
2022-09-24T06:22:10.826Z,21.93
2022-09-24T06:24:37.567Z,16.60
2022-09-24T06:27:04.478Z,15.63
2022-09-24T06:29:31.839Z,15.67
2022-09-24T06:31:59.812Z,11.23
2022-09-24T06:34:26.581Z,11.57
2022-09-24T06:36:57.072Z,11.63
2022-09-24T06:39:25.123Z,10.33
2022-09-24T06:41:52.974Z,10.47
2022-09-24T06:44:20.199Z,10.17
2022-09-24T06:46:47.178Z,10.03
2022-09-24T06:49:13.991Z,10.17
2022-09-24T06:51:40.803Z,10.13
2022-09-24T06:54:07.574Z,9.80
2022-09-24T06:56:34.320Z,10.57
2022-09-24T06:59:01.059Z,10.70
2022-09-24T07:01:28.020Z,11.47
2022-09-24T07:03:54.866Z,9.40
2022-09-24T07:06:21.627Z,10.53
2022-09-24T07:08:51.982Z,10.07
2022-09-24T07:11:18.780Z,11.30
2022-09-24T07:13:45.660Z,12.03
2022-09-24T07:16:12.481Z,11.80
2022-09-24T07:18:39.282Z,11.43
2022-09-24T07:21:06.209Z,10.70
2022-09-24T07:23:32.966Z,10.70
2022-09-24T07:25:59.707Z,9.87
2022-09-24T07:28:26.675Z,10.47
2022-09-24T07:31:01.133Z,10.17
2022-09-24T07:33:28.192Z,9.67
2022-09-24T07:35:54.966Z,10.47
2022-09-24T07:38:22.363Z,10.67
2022-09-24T07:40:49.668Z,10.37
2022-09-24T07:43:16.516Z,10.73
2022-09-24T07:45:43.428Z,14.13
2022-09-24T07:48:11.098Z,12.63
2022-09-24T07:50:42.681Z,11.43
2022-09-24T07:53:13.968Z,11.30
2022-09-24T07:55:41.547Z,10.50
2022-09-24T07:58:13.411Z,12.10
2022-09-24T08:00:40.478Z,9.53
2022-09-24T08:03:07.519Z,10.63
2022-09-24T08:05:34.606Z,9.67
2022-09-24T08:08:01.682Z,9.30
2022-09-24T08:10:29.111Z,10.07
2022-09-24T08:12:59.053Z,9.40
2022-09-24T08:15:25.895Z,10.13
2022-09-24T08:17:53.018Z,10.47
2022-09-24T08:20:21.424Z,10.37
2022-09-24T08:22:48.374Z,9.77
2022-09-24T08:25:15.220Z,10.80
2022-09-24T08:27:42.004Z,10.07
2022-09-24T08:30:09.746Z,10.23
2022-09-24T08:32:36.527Z,10.17
2022-09-24T08:35:03.502Z,9.93
2022-09-24T08:37:30.406Z,9.70
2022-09-24T08:39:57.495Z,9.67
2022-09-24T08:42:50.599Z,9.37
2022-09-24T08:45:36.792Z,10.53
2022-09-24T08:48:22.000Z,9.57
2022-09-24T08:50:58.093Z,9.93
2022-09-24T08:53:31.668Z,9.60
2022-09-24T08:56:02.139Z,9.40
2022-09-24T08:58:57.199Z,9.80
2022-09-24T09:02:17.941Z,10.40
2022-09-24T09:05:49.270Z,12.63
2022-09-24T09:09:09.987Z,18.67
2022-09-24T09:11:40.170Z,29.43
2022-09-24T09:14:21.916Z,20.57
2022-09-24T09:17:06.735Z,15.40
2022-09-24T09:19:34.995Z,13.27
2022-09-24T09:22:23.647Z,12.57
2022-09-24T09:25:03.701Z,10.27
2022-09-24T09:27:31.374Z,9.60
2022-09-24T09:30:03.637Z,9.73
2022-09-24T09:33:15.472Z,12.50
2022-09-24T09:35:49.276Z,9.60
2022-09-24T09:38:32.391Z,9.03
2022-09-24T09:41:34.979Z,9.37
2022-09-24T09:44:17.689Z,9.27
2022-09-24T09:46:57.689Z,9.73
2022-09-24T09:49:32.523Z,9.03
2022-09-24T09:52:04.824Z,9.10
2022-09-24T09:54:38.943Z,8.83
2022-09-24T09:57:18.129Z,8.53
2022-09-24T09:59:50.972Z,7.80
2022-09-24T10:02:31.552Z,8.53
2022-09-24T10:05:01.630Z,7.80
2022-09-24T10:07:31.502Z,9.00
2022-09-24T10:10:04.005Z,7.40
2022-09-24T10:12:30.981Z,7.13
2022-09-24T10:15:27.033Z,7.27
2022-09-24T10:17:55.200Z,7.07
2022-09-24T10:20:29.435Z,7.30
2022-09-24T10:23:21.539Z,7.17
2022-09-24T10:26:00.064Z,5.70
2022-09-24T10:28:46.419Z,6.83
2022-09-24T10:31:29.406Z,7.10
2022-09-24T10:33:59.127Z,6.50
2022-09-24T10:36:32.595Z,7.30
2022-09-24T10:39:16.157Z,7.73
2022-09-24T10:41:52.169Z,7.47
2022-09-24T10:44:21.190Z,7.93
2022-09-24T10:47:45.989Z,7.40
2022-09-24T10:50:29.747Z,7.93
2022-09-24T10:53:13.830Z,7.60
2022-09-24T10:56:19.847Z,8.17
2022-09-24T10:59:24.082Z,8.23
2022-09-24T11:02:02.669Z,7.50
2022-09-24T11:04:46.816Z,8.10
2022-09-24T11:07:52.828Z,7.70
2022-09-24T11:10:40.650Z,7.93
2022-09-24T11:13:56.784Z,8.20
2022-09-24T11:16:56.296Z,8.00
2022-09-24T11:19:34.571Z,7.50
2022-09-24T11:22:15.881Z,8.40
2022-09-24T11:25:08.796Z,8.37
2022-09-24T11:27:54.377Z,8.80
2022-09-24T11:30:25.006Z,8.37
2022-09-24T11:33:20.698Z,7.80
2022-09-24T11:36:07.123Z,8.47
2022-09-24T11:39:07.064Z,8.83
2022-09-24T11:41:57.524Z,7.83
2022-09-24T11:45:11.133Z,9.33
2022-09-24T11:48:02.036Z,9.87
2022-09-24T11:51:02.731Z,7.63
2022-09-24T11:53:59.824Z,9.33
2022-09-24T11:56:41.282Z,8.07
2022-09-24T11:59:30.984Z,8.60
2022-09-24T12:02:19.184Z,8.67
2022-09-24T12:05:35.971Z,8.97
2022-09-24T12:08:21.621Z,9.43
2022-09-24T12:11:30.871Z,10.43
2022-09-24T12:14:15.124Z,9.80
2022-09-24T12:16:44.376Z,9.57
2022-09-24T12:19:32.934Z,14.40
2022-09-24T12:22:04.048Z,10.57
2022-09-24T12:24:39.064Z,9.97
2022-09-24T12:27:17.525Z,10.13
2022-09-24T12:30:11.723Z,10.33
2022-09-24T12:33:06.813Z,10.10
2022-09-24T12:36:01.956Z,9.97
2022-09-24T12:38:40.693Z,10.03
2022-09-24T12:41:23.449Z,11.87
2022-09-24T12:44:09.942Z,11.00
2022-09-24T12:46:57.519Z,13.47
2022-09-24T12:49:27.268Z,9.97
2022-09-24T12:51:56.813Z,10.27
2022-09-24T12:54:36.534Z,10.67
2022-09-24T12:57:24.308Z,15.63
2022-09-24T12:59:54.955Z,12.70
2022-09-24T13:02:29.920Z,11.63
2022-09-24T13:05:02.814Z,10.33
2022-09-24T13:07:35.449Z,9.93
2022-09-24T13:10:17.416Z,10.27
2022-09-24T13:12:46.332Z,9.73
2022-09-24T13:15:32.517Z,10.13
2022-09-24T13:18:11.067Z,9.93
2022-09-24T13:20:49.288Z,10.37
2022-09-24T13:23:20.367Z,8.87
2022-09-24T13:25:59.387Z,9.43
2022-09-24T13:28:55.278Z,9.50
2022-09-24T13:31:22.021Z,10.43
2022-09-24T13:33:57.375Z,8.63
2022-09-24T13:36:33.220Z,9.33
2022-09-24T13:39:45.355Z,9.03
2022-09-24T13:42:35.208Z,9.77
2022-09-24T13:45:09.596Z,9.53
2022-09-24T13:47:55.107Z,9.33
2022-09-24T13:50:36.649Z,10.37
2022-09-24T13:53:40.494Z,8.53
2022-09-24T13:56:17.720Z,10.60
2022-09-24T13:58:44.572Z,11.40
2022-09-24T14:01:29.943Z,9.23
2022-09-24T14:04:05.335Z,11.53
2022-09-24T14:06:39.831Z,11.13
2022-09-24T14:09:27.734Z,10.10
2022-09-24T14:11:58.539Z,9.77
2022-09-24T14:14:29.074Z,9.90
2022-09-24T14:17:08.052Z,10.17
2022-09-24T14:19:35.994Z,8.80
2022-09-24T14:22:05.263Z,8.23
2022-09-24T14:24:41.051Z,9.40
2022-09-24T14:27:13.103Z,9.07
2022-09-24T14:30:01.200Z,9.27
2022-09-24T14:32:39.271Z,9.10
2022-09-24T14:35:20.047Z,9.90
2022-09-24T14:38:13.998Z,11.30
2022-09-24T14:41:15.870Z,9.17
2022-09-24T14:43:45.542Z,8.83
2022-09-24T14:46:28.790Z,8.57
2022-09-24T14:49:22.916Z,8.47
2022-09-24T14:52:01.325Z,9.27
2022-09-24T14:54:41.357Z,8.43
2022-09-24T14:57:17.248Z,7.93
2022-09-24T14:59:45.294Z,8.93
2022-09-24T15:02:25.219Z,7.83
2022-09-24T15:04:55.918Z,7.47
2022-09-24T15:07:26.177Z,7.60
2022-09-24T15:09:56.548Z,7.93
2022-09-24T15:12:32.558Z,8.00
2022-09-24T15:15:29.291Z,7.27
2022-09-24T15:17:56.052Z,8.43
2022-09-24T15:20:23.078Z,8.60
2022-09-24T15:22:49.821Z,7.83
2022-09-24T15:25:16.598Z,7.80
2022-09-24T15:27:43.486Z,8.53
2022-09-24T15:30:20.891Z,7.53
2022-09-24T15:32:51.603Z,6.80
2022-09-24T15:35:18.422Z,7.60
2022-09-24T15:37:45.452Z,8.60
2022-09-24T15:40:23.479Z,8.03
2022-09-24T15:42:50.993Z,9.63
2022-09-24T15:45:21.361Z,9.13
2022-09-24T15:47:49.819Z,15.73
2022-09-24T15:50:17.469Z,52.53
2022-09-24T15:52:57.939Z,41.53
2022-09-24T15:55:25.078Z,93.30
2022-09-24T15:57:51.857Z,90.47
2022-09-24T16:00:22.385Z,25.97
2022-09-24T16:02:56.065Z,10.43
2022-09-24T16:05:23.997Z,9.33
2022-09-24T16:07:50.810Z,10.93
2022-09-24T16:10:17.860Z,8.40
2022-09-24T16:12:44.666Z,8.33
2022-09-24T16:15:16.013Z,7.90
2022-09-24T16:17:43.523Z,8.07
2022-09-24T16:20:10.533Z,9.17
2022-09-24T16:22:37.379Z,29.47
2022-09-24T16:25:06.054Z,22.77
2022-09-24T16:27:35.152Z,12.97
2022-09-24T16:30:02.517Z,8.70
2022-09-24T16:32:29.276Z,9.30
2022-09-24T16:34:56.870Z,9.90
2022-09-24T16:37:24.294Z,10.00
2022-09-24T16:39:51.411Z,8.97
2022-09-24T16:42:18.214Z,7.83
2022-09-24T16:44:44.969Z,9.80
2022-09-24T16:47:11.986Z,9.17
2022-09-24T16:49:38.739Z,8.63
2022-09-24T16:52:06.147Z,10.43
2022-09-24T16:54:32.914Z,8.80
2022-09-24T16:57:01.698Z,8.30
2022-09-24T16:59:28.447Z,8.40
2022-09-24T17:01:55.264Z,8.33
2022-09-24T17:04:22.699Z,8.80
2022-09-24T17:06:49.595Z,9.10
2022-09-24T17:09:35.136Z,8.40
2022-09-24T17:12:02.077Z,8.13
2022-09-24T17:14:28.888Z,10.27
2022-09-24T17:16:55.631Z,8.83
2022-09-24T17:19:22.522Z,8.00
2022-09-24T17:21:52.139Z,7.47
2022-09-24T17:24:22.080Z,8.47
2022-09-24T17:26:49.464Z,8.00
2022-09-24T17:29:20.407Z,7.93
2022-09-24T17:31:47.155Z,8.60
2022-09-24T17:34:15.120Z,10.43
2022-09-24T17:36:42.707Z,8.70
2022-09-24T17:39:12.918Z,9.37
2022-09-24T17:41:39.685Z,9.57
2022-09-24T17:44:06.700Z,8.97
2022-09-24T17:46:35.729Z,8.93
2022-09-24T17:49:03.050Z,8.87
2022-09-24T17:51:32.876Z,8.23
2022-09-24T17:54:04.399Z,7.93
2022-09-24T17:56:33.473Z,8.37
2022-09-24T17:59:00.834Z,8.77
2022-09-24T18:01:33.667Z,7.87
2022-09-24T18:04:00.680Z,7.50
2022-09-24T18:06:32.962Z,8.10
2022-09-24T18:09:01.526Z,7.20
2022-09-24T18:11:32.825Z,8.80
2022-09-24T18:14:02.250Z,8.70
2022-09-24T18:16:32.189Z,9.27
2022-09-24T18:19:01.459Z,9.60
2022-09-24T18:21:29.558Z,9.60
2022-09-24T18:23:59.305Z,9.40
2022-09-24T18:26:35.155Z,9.00
2022-09-24T18:29:11.415Z,10.63
2022-09-24T18:31:39.090Z,9.80
2022-09-24T18:34:08.278Z,11.17
2022-09-24T18:36:38.583Z,12.57
2022-09-24T18:39:12.408Z,13.17
2022-09-24T18:41:40.576Z,13.17
2022-09-24T18:44:09.252Z,11.33
2022-09-24T18:46:36.172Z,10.80
2022-09-24T18:49:03.506Z,10.43
2022-09-24T18:51:36.518Z,10.17
2022-09-24T18:54:12.776Z,11.33
2022-09-24T18:56:41.299Z,11.23
2022-09-24T18:59:19.198Z,11.83
2022-09-24T19:01:48.660Z,11.33
2022-09-24T19:04:16.980Z,10.77
2022-09-24T19:06:47.963Z,11.57
2022-09-24T19:09:17.394Z,12.50
2022-09-24T19:11:45.693Z,12.30
2022-09-24T19:14:14.883Z,13.10
2022-09-24T19:16:42.029Z,14.07
2022-09-24T19:19:11.171Z,14.03
2022-09-24T19:21:39.860Z,14.60
2022-09-24T19:24:07.750Z,13.93
2022-09-24T19:26:36.702Z,13.03
2022-09-24T19:29:05.223Z,12.93
2022-09-24T19:31:36.497Z,11.60
2022-09-24T19:34:06.474Z,12.70
2022-09-24T19:36:43.802Z,11.33
2022-09-24T19:39:18.357Z,11.90
2022-09-24T19:41:45.767Z,13.00
2022-09-24T19:44:13.386Z,11.53
2022-09-24T19:46:40.964Z,12.47
2022-09-24T19:49:08.832Z,12.40
2022-09-24T19:51:37.111Z,14.50
2022-09-24T19:54:08.286Z,15.03
2022-09-24T19:56:36.427Z,14.87
2022-09-24T19:59:05.190Z,14.60
2022-09-24T20:01:33.251Z,14.70
2022-09-24T20:04:05.735Z,14.90
2022-09-24T20:06:36.025Z,16.37
2022-09-24T20:09:03.370Z,17.00
2022-09-24T20:11:32.646Z,17.70
2022-09-24T20:14:01.515Z,18.63
2022-09-24T20:16:32.472Z,18.60
2022-09-24T20:19:01.099Z,19.47
2022-09-24T20:21:34.291Z,31.77
2022-09-24T20:24:03.781Z,23.27
2022-09-24T20:26:50.742Z,22.17
2022-09-24T20:29:19.603Z,25.53
2022-09-24T20:31:52.609Z,23.57
2022-09-24T20:34:26.332Z,23.17
2022-09-24T20:36:53.420Z,21.90
2022-09-24T20:39:21.205Z,22.03
2022-09-24T20:41:49.300Z,21.70
2022-09-24T20:44:16.944Z,22.40
2022-09-24T20:46:43.854Z,21.83
2022-09-24T20:49:19.539Z,23.67
2022-09-24T20:51:46.322Z,25.00
2022-09-24T20:54:13.059Z,24.00
2022-09-24T20:56:39.963Z,24.73
2022-09-24T20:59:07.538Z,25.73
2022-09-24T21:01:34.327Z,24.03
2022-09-24T21:04:02.387Z,25.73
2022-09-24T21:06:29.793Z,28.70
2022-09-24T21:08:57.040Z,26.93
2022-09-24T21:11:29.863Z,29.10
2022-09-24T21:14:02.725Z,26.93
2022-09-24T21:16:33.456Z,31.20
2022-09-24T21:19:04.108Z,29.50
2022-09-24T21:21:35.140Z,29.67
2022-09-24T21:24:02.552Z,30.07
2022-09-24T21:26:32.948Z,31.97
2022-09-24T21:29:10.703Z,30.13
2022-09-24T21:31:39.375Z,31.83
2022-09-24T21:34:07.619Z,31.80
2022-09-24T21:36:44.513Z,32.07
2022-09-24T21:39:23.411Z,32.10
2022-09-24T21:41:52.907Z,31.77
2022-09-24T21:44:20.026Z,39.93
2022-09-24T21:46:48.071Z,38.20
2022-09-24T21:49:16.954Z,35.97
2022-09-24T21:51:44.221Z,35.97
2022-09-24T21:54:17.134Z,32.97
2022-09-24T21:56:44.581Z,34.20
2022-09-24T21:59:29.830Z,31.90
2022-09-24T22:01:56.816Z,31.47
2022-09-24T22:04:23.631Z,32.03
2022-09-24T22:06:51.083Z,31.33
2022-09-24T22:09:18.869Z,32.20
2022-09-24T22:11:46.152Z,31.50
2022-09-24T22:14:13.994Z,28.70
2022-09-24T22:16:40.840Z,30.73
2022-09-24T22:19:09.208Z,29.93
2022-09-24T22:21:36.647Z,29.63
2022-09-24T22:24:04.455Z,30.70
2022-09-24T22:26:31.255Z,31.43
2022-09-24T22:28:59.084Z,32.53
2022-09-24T22:31:26.371Z,32.90
2022-09-24T22:34:12.096Z,32.23
2022-09-24T22:36:39.044Z,34.13
2022-09-24T22:39:07.498Z,34.67
2022-09-24T22:41:39.730Z,33.50
2022-09-24T22:44:07.513Z,35.23
2022-09-24T22:46:36.228Z,34.40
2022-09-24T22:49:05.431Z,33.07
2022-09-24T22:51:33.389Z,31.17
2022-09-24T22:54:00.225Z,32.30
2022-09-24T22:56:27.830Z,32.07
2022-09-24T22:58:58.563Z,31.43
2022-09-24T23:01:28.829Z,31.87
2022-09-24T23:03:57.071Z,31.20
2022-09-24T23:06:25.135Z,34.20
2022-09-24T23:08:53.870Z,32.30
2022-09-24T23:11:27.520Z,31.17
2022-09-24T23:14:05.246Z,32.17
2022-09-24T23:16:35.118Z,33.20
2022-09-24T23:19:07.024Z,33.87
2022-09-24T23:21:34.913Z,29.87
2022-09-24T23:24:06.096Z,31.40
2022-09-24T23:26:33.285Z,30.47
2022-09-24T23:29:01.207Z,27.83
2022-09-24T23:31:34.257Z,27.20
2022-09-24T23:34:02.130Z,29.97
2022-09-24T23:36:31.971Z,28.70
2022-09-24T23:39:00.552Z,29.33
2022-09-24T23:41:29.050Z,25.80
2022-09-24T23:43:55.941Z,27.73
2022-09-24T23:46:22.774Z,26.83
2022-09-24T23:48:49.704Z,26.87
2022-09-24T23:51:16.493Z,24.97
2022-09-24T23:53:43.313Z,27.87
2022-09-24T23:56:11.182Z,26.70
2022-09-24T23:58:38.023Z,29.53
